createdAt,value
2023-05-08T00:01:25.466Z,4.18
2023-05-08T00:03:52.895Z,4.14
2023-05-08T00:06:19.670Z,4.02
2023-05-08T00:08:46.318Z,3.91
2023-05-08T00:11:13.026Z,3.86
2023-05-08T00:13:41.339Z,3.74
2023-05-08T00:16:12.900Z,3.56
2023-05-08T00:18:40.180Z,3.36
2023-05-08T00:21:06.867Z,3.39
2023-05-08T00:23:34.154Z,3.27
2023-05-08T00:26:00.910Z,3.20
2023-05-08T00:28:27.643Z,3.18
2023-05-08T00:30:54.365Z,3.10
2023-05-08T00:33:21.083Z,2.93
2023-05-08T00:35:48.015Z,2.79
2023-05-08T00:38:14.644Z,2.72
2023-05-08T00:40:41.643Z,2.69
2023-05-08T00:43:08.192Z,2.62
2023-05-08T00:45:38.020Z,2.49
2023-05-08T00:48:05.126Z,2.51
2023-05-08T00:50:32.731Z,2.46
2023-05-08T00:53:02.865Z,2.48
2023-05-08T00:55:30.239Z,2.43
2023-05-08T00:57:58.087Z,2.32
2023-05-08T01:00:25.062Z,2.28
2023-05-08T01:02:52.077Z,2.19
2023-05-08T01:05:18.827Z,2.14
2023-05-08T01:07:45.717Z,2.03
2023-05-08T01:10:12.655Z,2.07
2023-05-08T01:12:58.234Z,2.04
2023-05-08T01:15:36.352Z,1.98
2023-05-08T01:18:18.931Z,2.13
2023-05-08T01:20:49.129Z,2.19
2023-05-08T01:23:34.678Z,2.30
2023-05-08T01:26:27.647Z,2.26
2023-05-08T01:29:03.054Z,2.10
2023-05-08T01:32:07.561Z,2.29
2023-05-08T01:34:38.827Z,2.30
2023-05-08T01:37:14.538Z,2.23
2023-05-08T01:39:51.135Z,2.32
2023-05-08T01:42:26.517Z,2.26
2023-05-08T01:45:03.432Z,2.18
2023-05-08T01:47:33.216Z,2.15
2023-05-08T01:50:07.305Z,2.19
2023-05-08T01:52:41.018Z,2.23
2023-05-08T01:55:14.209Z,2.17
2023-05-08T01:57:53.343Z,2.23
2023-05-08T02:00:22.934Z,2.06
2023-05-08T02:02:51.914Z,1.95
2023-05-08T02:05:20.980Z,1.82
2023-05-08T02:07:50.489Z,1.69
2023-05-08T02:10:18.511Z,1.58
2023-05-08T02:12:45.872Z,1.48
2023-05-08T02:15:16.186Z,1.40
2023-05-08T02:17:46.241Z,1.33
2023-05-08T02:20:15.328Z,1.29
2023-05-08T02:22:48.854Z,1.23
2023-05-08T02:25:17.227Z,1.14
2023-05-08T02:27:49.521Z,1.04
2023-05-08T02:30:19.339Z,1.14
2023-05-08T02:32:48.078Z,1.28
2023-05-08T02:35:19.933Z,1.32
2023-05-08T02:37:51.750Z,1.37
2023-05-08T02:40:20.583Z,1.43
2023-05-08T02:42:47.387Z,1.39
2023-05-08T02:45:14.605Z,1.38
2023-05-08T02:48:05.277Z,1.31
2023-05-08T02:50:40.405Z,1.41
2023-05-08T02:53:12.842Z,1.46
2023-05-08T02:56:00.427Z,1.66
2023-05-08T02:58:40.497Z,1.71
2023-05-08T03:01:48.342Z,1.76
2023-05-08T03:04:24.508Z,1.64
2023-05-08T03:06:54.919Z,1.58
2023-05-08T03:09:26.295Z,1.47
2023-05-08T03:12:00.917Z,1.47
2023-05-08T03:14:31.655Z,1.49
2023-05-08T03:17:01.037Z,1.59
2023-05-08T03:19:33.115Z,1.75
2023-05-08T03:22:01.935Z,1.97
2023-05-08T03:24:31.616Z,1.98
2023-05-08T03:26:59.294Z,1.85
2023-05-08T03:29:27.254Z,1.65
2023-05-08T03:31:54.806Z,1.51
2023-05-08T03:34:23.490Z,1.40
2023-05-08T03:36:50.913Z,1.41
2023-05-08T03:39:17.688Z,1.29
2023-05-08T03:41:45.558Z,1.29
2023-05-08T03:44:13.368Z,1.20
2023-05-08T03:46:42.486Z,1.18
2023-05-08T03:49:12.474Z,1.10
2023-05-08T03:51:40.380Z,1.09
2023-05-08T03:54:07.162Z,1.08
2023-05-08T03:56:34.397Z,1.41
2023-05-08T03:59:17.810Z,1.81
2023-05-08T04:01:59.260Z,2.17
2023-05-08T04:04:42.050Z,2.17
2023-05-08T04:07:32.060Z,2.44
2023-05-08T04:10:13.789Z,2.76
2023-05-08T04:12:51.976Z,2.98
2023-05-08T04:15:24.486Z,3.06
2023-05-08T04:17:55.542Z,3.25
2023-05-08T04:20:26.036Z,3.39
2023-05-08T04:22:54.676Z,3.44
2023-05-08T04:25:21.393Z,3.57
2023-05-08T04:27:51.360Z,3.59
2023-05-08T04:30:18.544Z,3.74
2023-05-08T04:32:46.963Z,3.85
2023-05-08T04:35:14.579Z,4.02
2023-05-08T04:37:43.609Z,4.22
2023-05-08T04:40:10.945Z,4.34
2023-05-08T04:42:39.873Z,4.42
2023-05-08T04:45:10.903Z,4.49
2023-05-08T04:47:37.780Z,4.65
2023-05-08T04:50:06.022Z,4.90
2023-05-08T04:52:33.819Z,5.30
2023-05-08T04:55:00.562Z,5.41
2023-05-08T04:57:27.828Z,5.58
2023-05-08T04:59:54.999Z,5.80
2023-05-08T05:02:21.632Z,6.13
2023-05-08T05:04:49.773Z,6.22
2023-05-08T05:07:17.431Z,6.34
2023-05-08T05:09:44.414Z,6.60
2023-05-08T05:12:13.494Z,6.98
2023-05-08T05:14:41.517Z,7.55
2023-05-08T05:17:09.405Z,8.23
2023-05-08T05:19:37.059Z,8.92
2023-05-08T05:22:03.862Z,9.16
2023-05-08T05:24:31.584Z,9.39
2023-05-08T05:26:58.639Z,9.56
2023-05-08T05:29:25.394Z,9.77
2023-05-08T05:31:52.167Z,9.51
2023-05-08T05:34:18.858Z,9.91
2023-05-08T05:36:45.428Z,10.01
2023-05-08T05:39:12.022Z,10.49
2023-05-08T05:41:38.728Z,9.95
2023-05-08T05:44:05.778Z,10.29
2023-05-08T05:46:32.745Z,10.39
2023-05-08T05:48:59.631Z,10.72
2023-05-08T05:51:30.275Z,10.72
2023-05-08T05:53:57.280Z,10.43
2023-05-08T05:56:25.021Z,10.69
2023-05-08T05:58:51.835Z,10.34
2023-05-08T06:01:18.984Z,10.63
2023-05-08T06:03:46.060Z,10.43
2023-05-08T06:06:13.266Z,10.57
2023-05-08T06:08:39.860Z,11.08
2023-05-08T06:11:06.621Z,10.99
2023-05-08T06:13:33.371Z,11.18
2023-05-08T06:16:00.168Z,10.65
2023-05-08T06:18:26.830Z,11.28
2023-05-08T06:20:59.995Z,11.49
2023-05-08T06:23:27.158Z,11.38
2023-05-08T06:25:54.585Z,11.23
2023-05-08T06:28:22.678Z,11.26
2023-05-08T06:30:49.506Z,11.50
2023-05-08T06:33:16.234Z,11.46
2023-05-08T06:35:49.213Z,11.91
2023-05-08T06:38:16.401Z,11.74
2023-05-08T06:40:47.941Z,11.87
2023-05-08T06:43:14.617Z,11.84
2023-05-08T06:45:43.931Z,11.84
2023-05-08T06:48:11.580Z,11.92
2023-05-08T06:50:39.471Z,12.05
2023-05-08T06:53:07.236Z,11.96
2023-05-08T06:55:36.119Z,12.16
2023-05-08T06:58:02.858Z,12.28
2023-05-08T07:00:29.600Z,12.45
2023-05-08T07:02:57.390Z,12.56
2023-05-08T07:05:24.114Z,12.84
2023-05-08T07:07:50.734Z,12.41
2023-05-08T07:10:19.987Z,12.87
2023-05-08T07:12:46.870Z,13.13
2023-05-08T07:15:25.214Z,12.14
2023-05-08T07:17:53.546Z,12.60
2023-05-08T07:20:21.656Z,12.75
2023-05-08T07:22:48.374Z,12.88
2023-05-08T07:25:15.112Z,13.16
2023-05-08T07:27:42.538Z,13.39
2023-05-08T07:30:09.621Z,13.39
2023-05-08T07:32:36.402Z,13.73
2023-05-08T07:35:03.791Z,13.93
2023-05-08T07:37:33.645Z,13.81
2023-05-08T07:40:00.253Z,13.62
2023-05-08T07:42:26.967Z,13.58
2023-05-08T07:44:55.208Z,13.94
2023-05-08T07:47:23.163Z,13.41
2023-05-08T07:49:49.875Z,13.77
2023-05-08T07:52:16.827Z,14.09
2023-05-08T07:54:44.142Z,13.68
2023-05-08T07:57:11.258Z,13.69
2023-05-08T07:59:38.055Z,13.81
2023-05-08T08:02:07.504Z,14.13
2023-05-08T08:04:36.786Z,14.37
2023-05-08T08:07:04.759Z,14.23
2023-05-08T08:09:32.352Z,14.53
2023-05-08T08:11:59.044Z,14.34
2023-05-08T08:14:25.623Z,14.51
2023-05-08T08:16:52.486Z,14.49
2023-05-08T08:19:19.252Z,14.57
2023-05-08T08:21:46.421Z,14.11
2023-05-08T08:24:13.835Z,14.80
2023-05-08T08:26:40.521Z,15.01
2023-05-08T08:29:07.166Z,14.88
2023-05-08T08:31:34.012Z,14.63
2023-05-08T08:34:04.656Z,14.67
2023-05-08T08:36:32.622Z,14.21
2023-05-08T08:39:00.292Z,14.51
2023-05-08T08:41:28.115Z,14.56
2023-05-08T08:43:57.756Z,14.58
2023-05-08T08:46:33.309Z,14.58
2023-05-08T08:49:03.785Z,14.47
2023-05-08T08:51:51.989Z,14.73
2023-05-08T08:54:23.890Z,14.69
2023-05-08T08:56:52.099Z,14.70
2023-05-08T08:59:19.333Z,15.38
2023-05-08T09:01:50.459Z,15.51
2023-05-08T09:04:17.408Z,15.59
2023-05-08T09:06:46.155Z,15.39
2023-05-08T09:09:16.534Z,15.02
2023-05-08T09:11:46.305Z,15.28
2023-05-08T09:14:13.259Z,15.51
2023-05-08T09:16:40.224Z,15.51
2023-05-08T09:19:08.105Z,15.96
2023-05-08T09:21:34.767Z,15.65
2023-05-08T09:24:04.936Z,15.89
2023-05-08T09:26:39.395Z,14.84
2023-05-08T09:29:22.757Z,15.31
2023-05-08T09:31:51.666Z,15.82
2023-05-08T09:34:28.101Z,15.83
2023-05-08T09:37:09.940Z,15.91
2023-05-08T09:39:36.727Z,15.87
2023-05-08T09:42:05.121Z,16.10
2023-05-08T09:44:51.922Z,15.99
2023-05-08T09:47:22.095Z,15.96
2023-05-08T09:50:05.159Z,16.19
2023-05-08T09:52:33.219Z,15.49
2023-05-08T09:55:02.221Z,15.83
2023-05-08T09:57:30.404Z,16.02
2023-05-08T10:00:14.218Z,15.88
2023-05-08T10:02:54.104Z,15.62
2023-05-08T10:05:24.955Z,15.56
2023-05-08T10:07:51.802Z,16.02
2023-05-08T10:10:28.881Z,15.84
2023-05-08T10:12:57.074Z,16.35
2023-05-08T10:15:27.443Z,16.87
2023-05-08T10:18:03.327Z,16.21
2023-05-08T10:20:31.765Z,16.48
2023-05-08T10:23:01.185Z,16.67
2023-05-08T10:25:33.196Z,16.26
2023-05-08T10:28:10.733Z,16.81
2023-05-08T10:30:43.259Z,16.64
2023-05-08T10:33:14.845Z,16.60
2023-05-08T10:35:43.691Z,15.86
2023-05-08T10:38:11.783Z,16.24
2023-05-08T10:40:39.271Z,16.43
2023-05-08T10:43:07.385Z,16.39
2023-05-08T10:45:34.978Z,16.65
2023-05-08T10:48:07.717Z,16.71
2023-05-08T10:51:08.373Z,16.70
2023-05-08T10:53:44.197Z,16.13
2023-05-08T10:56:11.954Z,16.59
2023-05-08T10:58:40.417Z,16.66
2023-05-08T11:01:07.957Z,16.90
2023-05-08T11:03:50.823Z,17.40
2023-05-08T11:06:38.273Z,17.44
2023-05-08T11:09:05.968Z,17.44
2023-05-08T11:11:39.389Z,17.01
2023-05-08T11:14:07.235Z,17.16
2023-05-08T11:16:59.981Z,17.15
2023-05-08T11:19:27.955Z,17.21
2023-05-08T11:22:27.078Z,17.40
2023-05-08T11:25:40.263Z,17.12
2023-05-08T11:28:06.956Z,16.59
2023-05-08T11:30:34.702Z,16.78
2023-05-08T11:33:05.522Z,16.84
2023-05-08T11:36:06.149Z,17.13
2023-05-08T11:38:36.222Z,17.27
2023-05-08T11:41:06.816Z,17.17
2023-05-08T11:43:33.487Z,17.08
2023-05-08T11:46:04.307Z,16.82
2023-05-08T11:48:32.514Z,17.02
2023-05-08T11:51:03.355Z,17.39
2023-05-08T11:53:31.404Z,17.42
2023-05-08T11:55:58.752Z,17.44
2023-05-08T11:58:26.952Z,17.71
2023-05-08T12:00:54.779Z,18.15
2023-05-08T12:03:23.237Z,18.40
2023-05-08T12:05:50.714Z,18.24
2023-05-08T12:08:18.301Z,17.74
2023-05-08T12:10:58.284Z,17.38
2023-05-08T12:13:31.158Z,17.33
2023-05-08T12:16:00.440Z,17.43
2023-05-08T12:18:28.844Z,17.39
2023-05-08T12:21:00.626Z,17.62
2023-05-08T12:23:32.239Z,17.72
2023-05-08T12:26:00.563Z,17.26
2023-05-08T12:28:28.825Z,17.86
2023-05-08T12:30:56.206Z,17.55
2023-05-08T12:33:23.523Z,17.66
2023-05-08T12:35:52.242Z,17.90
2023-05-08T12:38:18.892Z,18.10
2023-05-08T12:40:53.087Z,18.03
2023-05-08T12:43:19.780Z,17.78
2023-05-08T12:45:51.933Z,18.12
2023-05-08T12:48:19.334Z,17.83
2023-05-08T12:50:46.379Z,17.62
2023-05-08T12:53:15.254Z,17.97
2023-05-08T12:55:54.054Z,18.28
2023-05-08T12:58:25.271Z,18.13
2023-05-08T13:00:54.731Z,18.29
2023-05-08T13:03:26.537Z,18.37
2023-05-08T13:05:55.580Z,18.40
2023-05-08T13:08:30.938Z,18.43
2023-05-08T13:10:57.628Z,18.91
2023-05-08T13:13:27.620Z,19.06
2023-05-08T13:15:55.488Z,18.98
2023-05-08T13:18:25.529Z,19.21
2023-05-08T13:20:52.284Z,18.92
2023-05-08T13:23:19.167Z,18.67
2023-05-08T13:25:47.453Z,19.07
2023-05-08T13:28:17.260Z,19.47
2023-05-08T13:30:44.497Z,18.74
2023-05-08T13:33:11.157Z,18.95
2023-05-08T13:35:37.921Z,18.42
2023-05-08T13:38:04.536Z,18.69
2023-05-08T13:40:31.411Z,18.74
2023-05-08T13:42:59.087Z,18.70
2023-05-08T13:45:28.221Z,18.35
2023-05-08T13:47:55.138Z,18.79
2023-05-08T13:50:22.467Z,18.32
2023-05-08T13:52:52.307Z,18.40
2023-05-08T13:55:22.876Z,18.97
2023-05-08T13:57:50.025Z,19.11
2023-05-08T14:00:17.406Z,19.14
2023-05-08T14:02:48.316Z,19.08
2023-05-08T14:05:17.362Z,18.65
2023-05-08T14:07:47.097Z,18.74
2023-05-08T14:10:14.043Z,18.98
2023-05-08T14:12:41.238Z,18.93
2023-05-08T14:15:08.678Z,18.65
2023-05-08T14:17:35.507Z,18.74
2023-05-08T14:20:02.363Z,19.00
2023-05-08T14:22:29.982Z,18.86
2023-05-08T14:24:56.560Z,18.81
2023-05-08T14:27:23.340Z,18.93
2023-05-08T14:29:50.079Z,19.00
2023-05-08T14:32:16.642Z,18.92
2023-05-08T14:34:44.286Z,18.81
2023-05-08T14:37:15.136Z,19.03
2023-05-08T14:39:41.736Z,19.20
2023-05-08T14:44:38.127Z,18.59
2023-05-08T14:47:05.837Z,18.61
2023-05-08T14:52:02.563Z,18.88
2023-05-08T14:54:29.274Z,18.80
2023-05-08T14:56:55.988Z,18.33
2023-05-08T14:59:22.662Z,18.55
2023-05-08T15:01:49.319Z,18.52
2023-05-08T15:04:17.692Z,18.61
2023-05-08T15:06:45.819Z,18.53
2023-05-08T15:09:12.536Z,18.84
2023-05-08T15:11:39.438Z,18.79
2023-05-08T15:14:06.205Z,18.57
2023-05-08T15:16:32.963Z,18.65
2023-05-08T15:18:59.671Z,18.80
2023-05-08T15:21:26.873Z,18.69
2023-05-08T15:23:55.440Z,18.46
2023-05-08T15:26:22.734Z,18.72
2023-05-08T15:28:49.555Z,18.60
2023-05-08T15:31:16.444Z,18.53
2023-05-08T15:33:45.079Z,18.46
2023-05-08T15:36:15.547Z,18.45
2023-05-08T15:38:46.116Z,18.49
2023-05-08T15:41:15.448Z,18.38
2023-05-08T15:43:45.432Z,18.46
2023-05-08T15:46:12.309Z,18.46
2023-05-08T15:48:40.096Z,18.54
2023-05-08T15:51:07.166Z,18.29
2023-05-08T15:53:34.782Z,18.21
2023-05-08T15:56:01.392Z,18.47
2023-05-08T15:58:28.076Z,18.53
2023-05-08T16:00:54.779Z,18.49
2023-05-08T16:03:21.709Z,18.21
2023-05-08T16:05:48.535Z,18.20
2023-05-08T16:08:16.408Z,18.27
2023-05-08T16:10:45.349Z,18.47
2023-05-08T16:13:12.046Z,18.27
2023-05-08T16:15:38.856Z,18.28
2023-05-08T16:18:06.279Z,18.29
2023-05-08T16:20:34.322Z,18.35
2023-05-08T16:23:02.723Z,18.43
2023-05-08T16:25:29.432Z,18.50
2023-05-08T16:27:56.328Z,18.55
2023-05-08T16:30:22.994Z,18.29
2023-05-08T16:32:49.605Z,18.28
2023-05-08T16:35:16.554Z,18.17
2023-05-08T16:37:45.360Z,18.11
2023-05-08T16:40:12.341Z,18.10
2023-05-08T16:42:39.026Z,18.02
2023-05-08T16:45:06.760Z,17.79
2023-05-08T16:47:34.296Z,17.97
2023-05-08T16:50:01.220Z,18.04
2023-05-08T16:52:28.551Z,17.90
2023-05-08T16:54:55.225Z,17.67
2023-05-08T16:57:21.980Z,17.66
2023-05-08T16:59:48.578Z,17.86
2023-05-08T17:02:19.090Z,17.86
2023-05-08T17:04:47.505Z,17.69
2023-05-08T17:07:15.947Z,17.53
2023-05-08T17:09:49.213Z,17.59
2023-05-08T17:12:15.939Z,17.52
2023-05-08T17:14:42.755Z,17.48
2023-05-08T17:17:11.325Z,17.36
2023-05-08T17:19:37.957Z,17.33
2023-05-08T17:22:04.802Z,17.23
2023-05-08T17:24:32.434Z,17.13
2023-05-08T17:26:59.466Z,17.21
2023-05-08T17:29:26.167Z,17.10
2023-05-08T17:31:53.869Z,17.05
2023-05-08T17:34:22.713Z,17.02
2023-05-08T17:36:49.633Z,16.97
2023-05-08T17:39:19.785Z,16.55
2023-05-08T17:41:46.936Z,16.86
2023-05-08T17:44:13.635Z,16.71
2023-05-08T17:46:40.340Z,16.57
2023-05-08T17:49:08.155Z,16.55
2023-05-08T17:51:34.866Z,16.50
2023-05-08T17:54:01.540Z,16.47
2023-05-08T17:56:29.019Z,16.33
2023-05-08T17:58:57.133Z,16.10
2023-05-08T18:01:24.851Z,15.87
2023-05-08T18:03:53.541Z,15.68
2023-05-08T18:06:20.436Z,15.52
2023-05-08T18:08:47.771Z,15.32
2023-05-08T18:11:24.477Z,15.16
2023-05-08T18:13:53.246Z,14.96
2023-05-08T18:16:21.208Z,14.77
2023-05-08T18:18:49.575Z,14.63
2023-05-08T18:21:16.210Z,14.47
2023-05-08T18:23:45.793Z,14.26
2023-05-08T18:26:16.335Z,14.10
2023-05-08T18:28:43.903Z,14.03
2023-05-08T18:31:11.754Z,13.89
2023-05-08T18:33:38.440Z,13.76
2023-05-08T18:36:07.018Z,13.64
2023-05-08T18:38:34.584Z,13.46
2023-05-08T18:41:02.769Z,13.33
2023-05-08T18:43:29.422Z,13.21
2023-05-08T18:45:56.183Z,13.06
2023-05-08T18:48:22.835Z,12.87
2023-05-08T18:50:49.406Z,12.73
2023-05-08T18:53:16.087Z,12.32
2023-05-08T18:55:42.755Z,12.39
2023-05-08T18:58:09.574Z,12.24
2023-05-08T19:00:36.471Z,11.97
2023-05-08T19:03:03.384Z,11.92
2023-05-08T19:05:30.078Z,11.87
2023-05-08T19:07:56.676Z,11.76
2023-05-08T19:10:23.404Z,11.69
2023-05-08T19:12:50.809Z,11.33
2023-05-08T19:15:17.625Z,11.40
2023-05-08T19:17:45.342Z,11.32
2023-05-08T19:20:13.103Z,11.19
2023-05-08T19:22:40.058Z,11.10
2023-05-08T19:25:07.022Z,10.95
2023-05-08T19:27:33.674Z,10.86
2023-05-08T19:30:00.303Z,10.79
2023-05-08T19:32:27.720Z,10.71
2023-05-08T19:34:58.048Z,10.64
2023-05-08T19:37:25.149Z,10.54
2023-05-08T19:39:51.893Z,10.44
2023-05-08T19:42:18.480Z,10.36
2023-05-08T19:44:45.244Z,10.21
2023-05-08T19:47:15.232Z,10.09
2023-05-08T19:49:41.832Z,10.03
2023-05-08T19:52:08.626Z,9.94
2023-05-08T19:54:35.340Z,9.77
2023-05-08T19:57:02.139Z,9.61
2023-05-08T19:59:28.835Z,9.42
2023-05-08T20:01:55.588Z,9.52
2023-05-08T20:04:22.318Z,9.44
2023-05-08T20:06:48.929Z,9.39
2023-05-08T20:09:15.648Z,9.14
2023-05-08T20:11:42.304Z,9.22
2023-05-08T20:14:08.905Z,9.09
2023-05-08T20:16:35.711Z,9.03
2023-05-08T20:19:02.290Z,8.92
2023-05-08T20:21:32.475Z,8.61
2023-05-08T20:24:02.429Z,8.71
2023-05-08T20:26:29.615Z,8.60
2023-05-08T20:28:56.978Z,8.49
2023-05-08T20:31:25.780Z,8.56
2023-05-08T20:33:52.644Z,8.47
2023-05-08T20:36:19.500Z,8.18
2023-05-08T20:38:48.252Z,8.20
2023-05-08T20:41:15.218Z,8.07
2023-05-08T20:43:41.929Z,7.88
2023-05-08T20:46:08.685Z,7.60
2023-05-08T20:48:36.741Z,7.36
2023-05-08T20:51:03.389Z,7.19
2023-05-08T20:53:30.666Z,7.20
2023-05-08T20:56:01.790Z,7.35
2023-05-08T20:58:28.548Z,7.44
2023-05-08T21:00:55.419Z,7.59
2023-05-08T21:03:22.559Z,7.66
2023-05-08T21:05:49.387Z,7.72
2023-05-08T21:08:16.123Z,7.91
2023-05-08T21:10:42.845Z,8.05
2023-05-08T21:13:09.914Z,8.09
2023-05-08T21:15:36.625Z,8.10
2023-05-08T21:18:03.358Z,8.17
2023-05-08T21:20:32.523Z,8.24
2023-05-08T21:22:59.144Z,8.26
2023-05-08T21:25:25.908Z,8.35
2023-05-08T21:27:55.178Z,8.35
2023-05-08T21:30:22.022Z,8.40
2023-05-08T21:32:48.725Z,8.39
2023-05-08T21:35:15.895Z,8.40
2023-05-08T21:37:43.059Z,8.40
2023-05-08T21:40:10.328Z,8.42
2023-05-08T21:42:39.286Z,8.36
2023-05-08T21:45:06.391Z,8.36
2023-05-08T21:47:33.082Z,8.35
2023-05-08T21:49:59.711Z,8.25
2023-05-08T21:52:26.643Z,7.97
2023-05-08T21:54:53.224Z,8.08
2023-05-08T21:57:19.900Z,8.00
2023-05-08T21:59:46.832Z,7.90
2023-05-08T22:02:15.798Z,7.85
2023-05-08T22:04:43.170Z,7.82
2023-05-08T22:07:09.817Z,7.77
2023-05-08T22:09:36.477Z,7.72
2023-05-08T22:12:03.085Z,7.81
2023-05-08T22:14:30.783Z,7.86
2023-05-08T22:16:57.365Z,7.89
2023-05-08T22:19:23.981Z,7.90
2023-05-08T22:21:50.572Z,7.96
2023-05-08T22:24:19.085Z,8.04
2023-05-08T22:26:46.036Z,8.07
2023-05-08T22:29:12.599Z,8.04
2023-05-08T22:31:39.310Z,7.92
2023-05-08T22:34:06.058Z,7.93
2023-05-08T22:36:32.724Z,8.05
2023-05-08T22:39:00.977Z,8.11
2023-05-08T22:41:30.167Z,8.20
2023-05-08T22:43:56.903Z,8.11
2023-05-08T22:46:24.423Z,8.14
2023-05-08T22:48:52.796Z,8.12
2023-05-08T22:51:19.492Z,8.09
2023-05-08T22:53:46.466Z,8.07
2023-05-08T22:56:13.538Z,8.04
2023-05-08T22:58:40.165Z,7.96
2023-05-08T23:01:06.848Z,7.98
2023-05-08T23:03:33.557Z,8.00
2023-05-08T23:06:00.120Z,7.91
2023-05-08T23:08:26.687Z,7.77
2023-05-08T23:10:53.344Z,7.95
2023-05-08T23:13:20.001Z,7.76
2023-05-08T23:15:46.627Z,7.94
2023-05-08T23:18:13.663Z,7.83
2023-05-08T23:20:40.284Z,7.83
2023-05-08T23:23:07.383Z,7.76
2023-05-08T23:25:34.001Z,7.71
2023-05-08T23:28:00.647Z,7.78
2023-05-08T23:30:27.335Z,7.80
2023-05-08T23:32:54.038Z,7.77
2023-05-08T23:35:20.787Z,7.76
2023-05-08T23:37:47.410Z,7.80
2023-05-08T23:40:17.495Z,7.78
2023-05-08T23:42:45.083Z,7.76
2023-05-08T23:45:12.215Z,7.69
2023-05-08T23:47:39.284Z,7.60
2023-05-08T23:50:08.513Z,7.61
2023-05-08T23:52:35.237Z,7.52
2023-05-08T23:55:03.002Z,7.42
2023-05-08T23:57:29.587Z,7.31
2023-05-08T23:59:56.191Z,7.29
